TVF66RU LFPO-LGMK
Flight info
| Callsign | TVF66RU |
|---|---|
| Flight time | 3h 7m |
| Altitude | 37000 |
| Route | BUBLI DCT LUVAL DCT BEGAR DCT TRA DCT SUXAN DCT ROSKA DCT ROTAR DCT MINTU DCT KOFER DCT PINDO DCT SKP UN137 AGAPU |
| Aircraft | B738/M-SDFGHIJ1RWXY/LB1 |
Departure
| Time | 2026-04-24 12:12 |
|---|---|
| Airport | Paris-Orly Airport (LFPO) |
Arrival
| Time | 2026-04-24 15:20 |
|---|---|
| Airport | Mykonos Island National Airport (LGMK) |
| Time | Latitude | Longitude | Altitude | Speed | Heading |
|---|---|---|---|---|---|
| 2026-04-24 12:00 | 48.72535 | 2.35211 | 298 ft | 1 kts | 254° |
| 2026-04-24 12:05 | 48.72541 | 2.35242 | 298 ft | 4 kts | 254° |
| 2026-04-24 12:05 | 48.72546 | 2.35273 | 302 ft | 4 kts | 250° |
| 2026-04-24 12:05 | 48.72558 | 2.35305 | 303 ft | 4 kts | 206° |
| 2026-04-24 12:06 | 48.72580 | 2.35306 | 303 ft | 4 kts | 164° |
| 2026-04-24 12:06 | 48.72591 | 2.35300 | 304 ft | 2 kts | 164° |
| 2026-04-24 12:07 | 48.72592 | 2.35300 | 304 ft | 0 kts | 164° |
| 2026-04-24 12:08 | 48.72590 | 2.35301 | 314 ft | 1 kts | 164° |
| 2026-04-24 12:09 | 48.72558 | 2.35314 | 287 ft | 9 kts | 166° |
| 2026-04-24 12:09 | 48.72479 | 2.35349 | 290 ft | 13 kts | 163° |
| 2026-04-24 12:09 | 48.72395 | 2.35395 | 289 ft | 13 kts | 153° |
| 2026-04-24 12:09 | 48.72331 | 2.35481 | 291 ft | 12 kts | 124° |
| 2026-04-24 12:10 | 48.72274 | 2.35575 | 290 ft | 12 kts | 146° |
| 2026-04-24 12:10 | 48.72195 | 2.35616 | 289 ft | 12 kts | 167° |
| 2026-04-24 12:10 | 48.72117 | 2.35646 | 287 ft | 11 kts | 164° |
| 2026-04-24 12:11 | 48.72010 | 2.35802 | 290 ft | 11 kts | 118° |
| 2026-04-24 12:11 | 48.71965 | 2.35893 | 289 ft | 11 kts | 132° |
| 2026-04-24 12:11 | 48.71968 | 2.36007 | 287 ft | 18 kts | 73° |
| 2026-04-24 12:11 | 48.72065 | 2.36530 | 288 ft | 86 kts | 74° |
| 2026-04-24 12:12 | 48.72283 | 2.37707 | 288 ft | 144 kts | 75° |
| 2026-04-24 12:12 | 48.72646 | 2.39773 | 1107 ft | 154 kts | 75° |
| 2026-04-24 12:12 | 48.72837 | 2.40830 | 1583 ft | 158 kts | 75° |
| 2026-04-24 12:12 | 48.73138 | 2.42449 | 2345 ft | 159 kts | 71° |
| 2026-04-24 12:13 | 48.73472 | 2.44123 | 2933 ft | 180 kts | 72° |
| 2026-04-24 12:13 | 48.73825 | 2.46014 | 3169 ft | 202 kts | 75° |
| 2026-04-24 12:13 | 48.74122 | 2.48224 | 3419 ft | 223 kts | 84° |
| 2026-04-24 12:13 | 48.74214 | 2.50721 | 3634 ft | 248 kts | 87° |
| 2026-04-24 12:14 | 48.74277 | 2.53328 | 4395 ft | 250 kts | 88° |
| 2026-04-24 12:14 | 48.74356 | 2.55931 | 5228 ft | 251 kts | 85° |
| 2026-04-24 12:14 | 48.74551 | 2.58578 | 5989 ft | 254 kts | 84° |
| 2026-04-24 12:14 | 48.74781 | 2.61286 | 6660 ft | 260 kts | 84° |
| 2026-04-24 12:15 | 48.75009 | 2.64020 | 7426 ft | 262 kts | 83° |
| 2026-04-24 12:15 | 48.75234 | 2.66793 | 8099 ft | 268 kts | 84° |
| 2026-04-24 12:15 | 48.75457 | 2.69602 | 8841 ft | 272 kts | 83° |
| 2026-04-24 12:15 | 48.75683 | 2.72465 | 9589 ft | 274 kts | 83° |
| 2026-04-24 12:16 | 48.75902 | 2.75302 | 10459 ft | 271 kts | 83° |
| 2026-04-24 12:16 | 48.76124 | 2.78188 | 10900 ft | 285 kts | 83° |
| 2026-04-24 12:16 | 48.76358 | 2.81245 | 11089 ft | 306 kts | 83° |
| 2026-04-24 12:16 | 48.76609 | 2.84571 | 11287 ft | 326 kts | 83° |
| 2026-04-24 12:17 | 48.76875 | 2.88062 | 11672 ft | 340 kts | 83° |
| 2026-04-24 12:17 | 48.77148 | 2.91651 | 12360 ft | 341 kts | 83° |
| 2026-04-24 12:17 | 48.77416 | 2.95216 | 13218 ft | 340 kts | 83° |
| 2026-04-24 12:17 | 48.77698 | 2.98797 | 13859 ft | 347 kts | 81° |
| 2026-04-24 12:18 | 48.78092 | 3.02401 | 14459 ft | 351 kts | 79° |
| 2026-04-24 12:18 | 48.78545 | 3.06057 | 15140 ft | 355 kts | 79° |
| 2026-04-24 12:18 | 48.79010 | 3.09760 | 15756 ft | 360 kts | 79° |
| 2026-04-24 12:18 | 48.79469 | 3.13464 | 16384 ft | 365 kts | 81° |
| 2026-04-24 12:19 | 48.79931 | 3.17278 | 16999 ft | 369 kts | 81° |
| 2026-04-24 12:19 | 48.80391 | 3.21139 | 17661 ft | 372 kts | 80° |
| 2026-04-24 12:19 | 48.80846 | 3.24981 | 18348 ft | 375 kts | 81° |
| 2026-04-24 12:19 | 48.81309 | 3.28911 | 18835 ft | 382 kts | 81° |
| 2026-04-24 12:20 | 48.81777 | 3.32909 | 19369 ft | 386 kts | 82° |
| 2026-04-24 12:20 | 48.82227 | 3.36933 | 19928 ft | 388 kts | 85° |
| 2026-04-24 12:20 | 48.82226 | 3.41029 | 20439 ft | 390 kts | 96° |
| 2026-04-24 12:20 | 48.81956 | 3.45135 | 20994 ft | 393 kts | 98° |
| 2026-04-24 12:21 | 48.81641 | 3.49275 | 21523 ft | 396 kts | 98° |
| 2026-04-24 12:21 | 48.81326 | 3.53456 | 22002 ft | 401 kts | 99° |
| 2026-04-24 12:21 | 48.81025 | 3.57627 | 22498 ft | 405 kts | 98° |
| 2026-04-24 12:21 | 48.80731 | 3.61900 | 23029 ft | 407 kts | 98° |
| 2026-04-24 12:22 | 48.80446 | 3.66187 | 23548 ft | 410 kts | 98° |
| 2026-04-24 12:22 | 48.80164 | 3.70514 | 23994 ft | 414 kts | 98° |
| 2026-04-24 12:22 | 48.79880 | 3.74879 | 24413 ft | 416 kts | 98° |
| 2026-04-24 12:22 | 48.79595 | 3.79253 | 24842 ft | 418 kts | 98° |
| 2026-04-24 12:23 | 48.79307 | 3.83654 | 25269 ft | 420 kts | 98° |
| 2026-04-24 12:23 | 48.79015 | 3.88079 | 25677 ft | 423 kts | 98° |
| 2026-04-24 12:23 | 48.78726 | 3.92429 | 26057 ft | 425 kts | 98° |
| 2026-04-24 12:23 | 48.78427 | 3.96901 | 26450 ft | 428 kts | 98° |
| 2026-04-24 12:24 | 48.78126 | 4.01398 | 26838 ft | 430 kts | 98° |
| 2026-04-24 12:24 | 48.77820 | 4.05917 | 27208 ft | 432 kts | 99° |
| 2026-04-24 12:24 | 48.77509 | 4.10486 | 27575 ft | 435 kts | 99° |
| 2026-04-24 12:24 | 48.76938 | 4.14944 | 27892 ft | 432 kts | 113° |
| 2026-04-24 12:25 | 48.75520 | 4.18940 | 28263 ft | 428 kts | 127° |
| 2026-04-24 12:25 | 48.73815 | 4.22575 | 28644 ft | 430 kts | 128° |
| 2026-04-24 12:25 | 48.72049 | 4.26249 | 28944 ft | 432 kts | 128° |
| 2026-04-24 12:25 | 48.70325 | 4.29925 | 29742 ft | 423 kts | 127° |
| 2026-04-24 12:26 | 48.68626 | 4.33616 | 29872 ft | 431 kts | 127° |
| 2026-04-24 12:26 | 48.65041 | 4.41075 | 30091 ft | 443 kts | 128° |
| 2026-04-24 12:26 | 48.63221 | 4.44850 | 30371 ft | 445 kts | 128° |
| 2026-04-24 12:27 | 48.61405 | 4.48640 | 30711 ft | 445 kts | 128° |
| 2026-04-24 12:27 | 48.59605 | 4.52419 | 31116 ft | 442 kts | 128° |
| 2026-04-24 12:27 | 48.57834 | 4.56147 | 31514 ft | 440 kts | 128° |
| 2026-04-24 12:27 | 48.56053 | 4.59900 | 31856 ft | 439 kts | 128° |
| 2026-04-24 12:28 | 48.54282 | 4.63628 | 32321 ft | 435 kts | 128° |
| 2026-04-24 12:28 | 48.52523 | 4.67325 | 32750 ft | 432 kts | 128° |
| 2026-04-24 12:28 | 48.50767 | 4.71011 | 33041 ft | 433 kts | 128° |
| 2026-04-24 12:28 | 48.49004 | 4.74703 | 33301 ft | 434 kts | 128° |
| 2026-04-24 12:29 | 48.47243 | 4.78387 | 33573 ft | 434 kts | 128° |
| 2026-04-24 12:29 | 48.45474 | 4.82081 | 33865 ft | 434 kts | 128° |
| 2026-04-24 12:29 | 48.43708 | 4.85765 | 34223 ft | 432 kts | 128° |
| 2026-04-24 12:29 | 48.41952 | 4.89421 | 34507 ft | 431 kts | 128° |
| 2026-04-24 12:30 | 48.40193 | 4.93080 | 34743 ft | 431 kts | 128° |
| 2026-04-24 12:30 | 48.38437 | 4.96727 | 34973 ft | 431 kts | 128° |
| 2026-04-24 12:30 | 48.36677 | 5.00374 | 35224 ft | 430 kts | 128° |
| 2026-04-24 12:30 | 48.34920 | 5.04012 | 35481 ft | 429 kts | 128° |
| 2026-04-24 12:31 | 48.33166 | 5.07641 | 35697 ft | 429 kts | 128° |
| 2026-04-24 12:31 | 48.31413 | 5.11274 | 35957 ft | 429 kts | 127° |
| 2026-04-24 12:31 | 48.29905 | 5.15130 | 36231 ft | 430 kts | 117° |
| 2026-04-24 12:31 | 48.28790 | 5.19261 | 36401 ft | 434 kts | 109° |
| 2026-04-24 12:32 | 48.28061 | 5.23681 | 36557 ft | 437 kts | 105° |
| 2026-04-24 12:32 | 48.27419 | 5.28148 | 36780 ft | 437 kts | 104° |
| 2026-04-24 12:32 | 48.26792 | 5.32611 | 37044 ft | 435 kts | 104° |
| 2026-04-24 12:32 | 48.26163 | 5.37056 | 37205 ft | 436 kts | 104° |
| 2026-04-24 12:33 | 48.25517 | 5.41530 | 37186 ft | 439 kts | 105° |
| 2026-04-24 12:33 | 48.24199 | 5.50443 | 37180 ft | 436 kts | 105° |
| 2026-04-24 12:34 | 48.22869 | 5.59273 | 37178 ft | 432 kts | 105° |
| 2026-04-24 12:34 | 48.21537 | 5.68039 | 37199 ft | 430 kts | 105° |
| 2026-04-24 12:35 | 48.20202 | 5.76773 | 37200 ft | 429 kts | 105° |
| 2026-04-24 12:35 | 48.18872 | 5.85431 | 37209 ft | 430 kts | 105° |
| 2026-04-24 12:36 | 48.17522 | 5.94178 | 37211 ft | 431 kts | 105° |
| 2026-04-24 12:36 | 48.16159 | 6.02957 | 37204 ft | 434 kts | 105° |
| 2026-04-24 12:37 | 48.14778 | 6.11803 | 37209 ft | 437 kts | 105° |
| 2026-04-24 12:37 | 48.13385 | 6.20682 | 37212 ft | 439 kts | 105° |
| 2026-04-24 12:38 | 48.11978 | 6.29605 | 37202 ft | 441 kts | 105° |
| 2026-04-24 12:38 | 48.10556 | 6.38567 | 37198 ft | 443 kts | 105° |
| 2026-04-24 12:39 | 48.07690 | 6.56493 | 37183 ft | 443 kts | 105° |
| 2026-04-24 12:40 | 48.06259 | 6.65371 | 37175 ft | 441 kts | 105° |
| 2026-04-24 12:40 | 48.04817 | 6.74266 | 37179 ft | 440 kts | 105° |
| 2026-04-24 12:41 | 48.03368 | 6.83160 | 37188 ft | 440 kts | 105° |
| 2026-04-24 12:41 | 48.01914 | 6.92030 | 37182 ft | 439 kts | 105° |
| 2026-04-24 12:42 | 48.00455 | 7.00891 | 37195 ft | 439 kts | 105° |
| 2026-04-24 12:42 | 47.98991 | 7.09730 | 37191 ft | 438 kts | 105° |
| 2026-04-24 12:43 | 47.97524 | 7.18546 | 37182 ft | 438 kts | 105° |
| 2026-04-24 12:43 | 47.96049 | 7.27353 | 37191 ft | 437 kts | 105° |
| 2026-04-24 12:44 | 47.94577 | 7.36103 | 37185 ft | 437 kts | 105° |
| 2026-04-24 12:44 | 47.93100 | 7.44827 | 37187 ft | 436 kts | 105° |
| 2026-04-24 12:45 | 47.91612 | 7.53586 | 37198 ft | 436 kts | 105° |
| 2026-04-24 12:45 | 47.89938 | 7.62262 | 37202 ft | 434 kts | 110° |
| 2026-04-24 12:46 | 47.87797 | 7.70680 | 37183 ft | 435 kts | 112° |
| 2026-04-24 12:46 | 47.85612 | 7.79077 | 37192 ft | 435 kts | 111° |
| 2026-04-24 12:47 | 47.83463 | 7.87461 | 37180 ft | 436 kts | 111° |
| 2026-04-24 12:47 | 47.81315 | 7.95899 | 37183 ft | 437 kts | 111° |
| 2026-04-24 12:48 | 47.79509 | 8.02980 | 37179 ft | 437 kts | 111° |
| 2026-04-24 12:48 | 47.77347 | 8.11429 | 37177 ft | 437 kts | 111° |
| 2026-04-24 12:49 | 47.75187 | 8.19834 | 37183 ft | 438 kts | 111° |
| 2026-04-24 12:49 | 47.73004 | 8.28283 | 37179 ft | 438 kts | 112° |
| 2026-04-24 12:50 | 47.70817 | 8.36731 | 37171 ft | 439 kts | 111° |
| 2026-04-24 12:50 | 47.68327 | 8.44974 | 37177 ft | 437 kts | 122° |
| 2026-04-24 12:51 | 47.64662 | 8.52125 | 37181 ft | 436 kts | 128° |
| 2026-04-24 12:51 | 47.60857 | 8.59108 | 37186 ft | 435 kts | 128° |
| 2026-04-24 12:52 | 47.57071 | 8.66091 | 37181 ft | 433 kts | 128° |
| 2026-04-24 12:52 | 47.53315 | 8.73060 | 37184 ft | 433 kts | 128° |
| 2026-04-24 12:53 | 47.49562 | 8.80027 | 37184 ft | 432 kts | 128° |
| 2026-04-24 12:53 | 47.45813 | 8.86973 | 37183 ft | 432 kts | 127° |
| 2026-04-24 12:54 | 47.42059 | 8.93912 | 37174 ft | 432 kts | 127° |
| 2026-04-24 12:54 | 47.38304 | 9.00833 | 37175 ft | 432 kts | 128° |
| 2026-04-24 12:55 | 47.34564 | 9.07709 | 37174 ft | 433 kts | 128° |
| 2026-04-24 12:55 | 47.30791 | 9.14626 | 37176 ft | 433 kts | 127° |
| 2026-04-24 12:56 | 47.27028 | 9.21507 | 37173 ft | 434 kts | 127° |
| 2026-04-24 12:56 | 47.23250 | 9.28392 | 37170 ft | 435 kts | 128° |
| 2026-04-24 12:57 | 47.19419 | 9.35288 | 37179 ft | 435 kts | 127° |
| 2026-04-24 12:57 | 47.15609 | 9.42209 | 37172 ft | 435 kts | 128° |
| 2026-04-24 12:58 | 47.11794 | 9.49134 | 37164 ft | 436 kts | 127° |
| 2026-04-24 12:58 | 47.07966 | 9.56054 | 37163 ft | 436 kts | 128° |
| 2026-04-24 12:59 | 47.04139 | 9.62951 | 37157 ft | 436 kts | 128° |
| 2026-04-24 12:59 | 47.00334 | 9.69791 | 37168 ft | 436 kts | 128° |
| 2026-04-24 13:00 | 46.96494 | 9.76675 | 37170 ft | 436 kts | 128° |
| 2026-04-24 13:00 | 46.92650 | 9.83548 | 37171 ft | 436 kts | 128° |
| 2026-04-24 13:01 | 46.88799 | 9.90417 | 37179 ft | 436 kts | 128° |
| 2026-04-24 13:01 | 46.84946 | 9.97273 | 37166 ft | 436 kts | 128° |
| 2026-04-24 13:02 | 46.81090 | 10.04118 | 37174 ft | 436 kts | 128° |
| 2026-04-24 13:02 | 46.77224 | 10.10962 | 37176 ft | 437 kts | 128° |
| 2026-04-24 13:03 | 46.73352 | 10.17801 | 37167 ft | 437 kts | 128° |
| 2026-04-24 13:03 | 46.69470 | 10.24639 | 37175 ft | 438 kts | 127° |
| 2026-04-24 13:04 | 46.65579 | 10.31480 | 37163 ft | 439 kts | 127° |
| 2026-04-24 13:04 | 46.61698 | 10.38284 | 37172 ft | 439 kts | 127° |
| 2026-04-24 13:05 | 46.57794 | 10.45116 | 37160 ft | 441 kts | 128° |
| 2026-04-24 13:05 | 46.53977 | 10.52087 | 37161 ft | 440 kts | 124° |
| 2026-04-24 13:06 | 46.50374 | 10.59292 | 37158 ft | 440 kts | 123° |
| 2026-04-24 13:06 | 46.46796 | 10.66502 | 37160 ft | 440 kts | 123° |
| 2026-04-24 13:07 | 46.43216 | 10.73633 | 37149 ft | 440 kts | 123° |
| 2026-04-24 13:07 | 46.39598 | 10.80779 | 37173 ft | 440 kts | 123° |
| 2026-04-24 13:08 | 46.35972 | 10.87910 | 37169 ft | 440 kts | 123° |
| 2026-04-24 13:08 | 46.32336 | 10.95041 | 37184 ft | 439 kts | 123° |
| 2026-04-24 13:09 | 46.26888 | 11.05697 | 37180 ft | 439 kts | 123° |
| 2026-04-24 13:09 | 46.23253 | 11.12782 | 37184 ft | 439 kts | 123° |
| 2026-04-24 13:10 | 46.19617 | 11.19854 | 37181 ft | 437 kts | 123° |
| 2026-04-24 13:10 | 46.15988 | 11.26893 | 37118 ft | 437 kts | 123° |
| 2026-04-24 13:11 | 46.12381 | 11.33872 | 37119 ft | 437 kts | 123° |
| 2026-04-24 13:11 | 46.08748 | 11.40886 | 37117 ft | 436 kts | 123° |
| 2026-04-24 13:12 | 46.05112 | 11.47887 | 37120 ft | 436 kts | 123° |
| 2026-04-24 13:12 | 46.01467 | 11.54889 | 37105 ft | 437 kts | 123° |
| 2026-04-24 13:13 | 45.97817 | 11.61881 | 37094 ft | 437 kts | 123° |
| 2026-04-24 13:13 | 45.94180 | 11.68831 | 37106 ft | 437 kts | 123° |
| 2026-04-24 13:14 | 45.90517 | 11.75813 | 37103 ft | 437 kts | 123° |
| 2026-04-24 13:14 | 45.86848 | 11.82791 | 37107 ft | 438 kts | 123° |
| 2026-04-24 13:15 | 45.83171 | 11.89767 | 37099 ft | 438 kts | 123° |
| 2026-04-24 13:15 | 45.79500 | 11.96713 | 37089 ft | 437 kts | 123° |
| 2026-04-24 13:16 | 45.75821 | 12.03656 | 37085 ft | 437 kts | 123° |
| 2026-04-24 13:16 | 45.72148 | 12.10573 | 37086 ft | 436 kts | 123° |
| 2026-04-24 13:17 | 45.68472 | 12.17478 | 37103 ft | 436 kts | 123° |
| 2026-04-24 13:17 | 45.64791 | 12.24375 | 37083 ft | 435 kts | 123° |
| 2026-04-24 13:18 | 45.61135 | 12.31210 | 37075 ft | 435 kts | 123° |
| 2026-04-24 13:18 | 45.57454 | 12.38074 | 37079 ft | 435 kts | 123° |
| 2026-04-24 13:19 | 45.53760 | 12.44945 | 37077 ft | 435 kts | 123° |
| 2026-04-24 13:19 | 45.50158 | 12.51649 | 37657 ft | 419 kts | 122° |
| 2026-04-24 13:20 | 45.48358 | 12.55021 | 37290 ft | 432 kts | 123° |
| 2026-04-24 13:20 | 45.46498 | 12.58459 | 37142 ft | 439 kts | 123° |
| 2026-04-24 13:20 | 45.43385 | 12.64180 | 37086 ft | 439 kts | 123° |
| 2026-04-24 13:21 | 45.39409 | 12.71485 | 37077 ft | 433 kts | 123° |
| 2026-04-24 13:21 | 45.35771 | 12.78180 | 37090 ft | 433 kts | 123° |
| 2026-04-24 13:22 | 45.32101 | 12.84917 | 37095 ft | 433 kts | 123° |
| 2026-04-24 13:22 | 45.29047 | 12.92181 | 37107 ft | 427 kts | 113° |
| 2026-04-24 13:23 | 45.26259 | 12.99665 | 37095 ft | 429 kts | 116° |
| 2026-04-24 13:23 | 45.22774 | 13.06594 | 37101 ft | 433 kts | 123° |
| 2026-04-24 13:24 | 45.19100 | 13.13361 | 37098 ft | 434 kts | 123° |
| 2026-04-24 13:24 | 45.15438 | 13.20151 | 37112 ft | 434 kts | 122° |
| 2026-04-24 13:25 | 45.11796 | 13.26970 | 37098 ft | 434 kts | 122° |
| 2026-04-24 13:25 | 45.08156 | 13.33801 | 37097 ft | 434 kts | 122° |
| 2026-04-24 13:26 | 45.04521 | 13.40613 | 37108 ft | 434 kts | 122° |
| 2026-04-24 13:26 | 45.00881 | 13.47416 | 37105 ft | 434 kts | 122° |
| 2026-04-24 13:27 | 44.97249 | 13.54187 | 37097 ft | 434 kts | 122° |
| 2026-04-24 13:27 | 44.93624 | 13.60927 | 37101 ft | 433 kts | 122° |
| 2026-04-24 13:28 | 44.89976 | 13.67695 | 37105 ft | 432 kts | 122° |
| 2026-04-24 13:28 | 44.86332 | 13.74438 | 37103 ft | 432 kts | 122° |
| 2026-04-24 13:29 | 44.82689 | 13.81165 | 37121 ft | 431 kts | 122° |
| 2026-04-24 13:29 | 44.79040 | 13.87887 | 37106 ft | 431 kts | 122° |
| 2026-04-24 13:30 | 44.75420 | 13.94540 | 37104 ft | 431 kts | 122° |
| 2026-04-24 13:30 | 44.71775 | 14.01225 | 37104 ft | 431 kts | 122° |
| 2026-04-24 13:31 | 44.68115 | 14.07920 | 37104 ft | 431 kts | 122° |
| 2026-04-24 13:31 | 44.64476 | 14.14561 | 37111 ft | 431 kts | 123° |
| 2026-04-24 13:32 | 44.60823 | 14.21214 | 37101 ft | 431 kts | 123° |
| 2026-04-24 13:32 | 44.57162 | 14.27865 | 37103 ft | 431 kts | 123° |
| 2026-04-24 13:33 | 44.53498 | 14.34505 | 37103 ft | 431 kts | 123° |
| 2026-04-24 13:33 | 44.49823 | 14.41151 | 37104 ft | 431 kts | 123° |
| 2026-04-24 13:34 | 44.46168 | 14.47747 | 37104 ft | 431 kts | 123° |
| 2026-04-24 13:34 | 44.42478 | 14.54389 | 37105 ft | 431 kts | 123° |
| 2026-04-24 13:35 | 44.38807 | 14.60983 | 37103 ft | 431 kts | 123° |
| 2026-04-24 13:35 | 44.35121 | 14.67591 | 37103 ft | 431 kts | 123° |
| 2026-04-24 13:36 | 44.31410 | 14.74185 | 37103 ft | 431 kts | 123° |
| 2026-04-24 13:36 | 44.27685 | 14.80713 | 37101 ft | 431 kts | 123° |
| 2026-04-24 13:37 | 44.23937 | 14.87267 | 37106 ft | 431 kts | 123° |
| 2026-04-24 13:37 | 44.20213 | 14.93775 | 37116 ft | 430 kts | 123° |
| 2026-04-24 13:38 | 44.17100 | 14.99208 | 37110 ft | 431 kts | 123° |
| 2026-04-24 13:38 | 44.13364 | 15.05716 | 37093 ft | 431 kts | 124° |
| 2026-04-24 13:39 | 44.09612 | 15.12236 | 37082 ft | 431 kts | 124° |
| 2026-04-24 13:39 | 44.05875 | 15.18716 | 37083 ft | 431 kts | 124° |
| 2026-04-24 13:40 | 44.02105 | 15.25239 | 37073 ft | 431 kts | 124° |
| 2026-04-24 13:40 | 43.98363 | 15.31700 | 37091 ft | 431 kts | 124° |
| 2026-04-24 13:41 | 43.94588 | 15.38203 | 37093 ft | 431 kts | 124° |
| 2026-04-24 13:41 | 43.90821 | 15.44678 | 37080 ft | 431 kts | 124° |
| 2026-04-24 13:42 | 43.87060 | 15.51126 | 37082 ft | 431 kts | 124° |
| 2026-04-24 13:42 | 43.83302 | 15.57555 | 37085 ft | 430 kts | 124° |
| 2026-04-24 13:43 | 43.79518 | 15.64016 | 37085 ft | 430 kts | 124° |
| 2026-04-24 13:43 | 43.75755 | 15.70426 | 37071 ft | 430 kts | 125° |
| 2026-04-24 13:44 | 43.71995 | 15.76816 | 37085 ft | 429 kts | 125° |
| 2026-04-24 13:44 | 43.68231 | 15.83199 | 37066 ft | 429 kts | 125° |
| 2026-04-24 13:45 | 43.64455 | 15.89589 | 37074 ft | 429 kts | 125° |
| 2026-04-24 13:45 | 43.60671 | 15.95978 | 37062 ft | 429 kts | 125° |
| 2026-04-24 13:46 | 43.56897 | 16.02336 | 37050 ft | 429 kts | 125° |
| 2026-04-24 13:46 | 43.53099 | 16.08722 | 37031 ft | 430 kts | 125° |
| 2026-04-24 13:47 | 43.49321 | 16.15059 | 37027 ft | 430 kts | 125° |
| 2026-04-24 13:47 | 43.45504 | 16.21448 | 37024 ft | 430 kts | 125° |
| 2026-04-24 13:48 | 43.41716 | 16.27775 | 37033 ft | 430 kts | 125° |
| 2026-04-24 13:48 | 43.37898 | 16.34136 | 37030 ft | 430 kts | 125° |
| 2026-04-24 13:49 | 43.34098 | 16.40457 | 37024 ft | 431 kts | 126° |
| 2026-04-24 13:49 | 43.30292 | 16.46770 | 37045 ft | 430 kts | 126° |
| 2026-04-24 13:50 | 43.26462 | 16.53111 | 37048 ft | 430 kts | 126° |
| 2026-04-24 13:50 | 43.22630 | 16.59442 | 37046 ft | 430 kts | 126° |
| 2026-04-24 13:51 | 43.18814 | 16.65733 | 37064 ft | 430 kts | 126° |
| 2026-04-24 13:51 | 43.14972 | 16.72052 | 37059 ft | 431 kts | 126° |
| 2026-04-24 13:52 | 43.11146 | 16.78333 | 37050 ft | 431 kts | 126° |
| 2026-04-24 13:52 | 43.07286 | 16.84654 | 37056 ft | 431 kts | 126° |
| 2026-04-24 13:53 | 43.03442 | 16.90937 | 37058 ft | 431 kts | 126° |
| 2026-04-24 13:53 | 42.99602 | 16.97199 | 37057 ft | 432 kts | 126° |
| 2026-04-24 13:54 | 42.95721 | 17.03515 | 37064 ft | 432 kts | 126° |
| 2026-04-24 13:54 | 42.91862 | 17.09781 | 37058 ft | 433 kts | 126° |
| 2026-04-24 13:55 | 42.87993 | 17.16050 | 37057 ft | 432 kts | 126° |
| 2026-04-24 13:55 | 42.84104 | 17.22337 | 37050 ft | 432 kts | 126° |
| 2026-04-24 13:56 | 42.80245 | 17.28565 | 37053 ft | 432 kts | 126° |
| 2026-04-24 13:56 | 42.76345 | 17.34843 | 37045 ft | 432 kts | 126° |
| 2026-04-24 13:57 | 42.72480 | 17.41052 | 37045 ft | 432 kts | 126° |
| 2026-04-24 13:57 | 42.68601 | 17.47271 | 37042 ft | 432 kts | 126° |
| 2026-04-24 13:58 | 42.64698 | 17.53516 | 37044 ft | 433 kts | 126° |
| 2026-04-24 13:58 | 42.60803 | 17.59734 | 37044 ft | 433 kts | 126° |
| 2026-04-24 13:59 | 42.56901 | 17.65950 | 37039 ft | 434 kts | 126° |
| 2026-04-24 13:59 | 42.52982 | 17.72180 | 37038 ft | 434 kts | 126° |
| 2026-04-24 14:00 | 42.49056 | 17.78408 | 37037 ft | 434 kts | 127° |
| 2026-04-24 14:00 | 42.45111 | 17.84653 | 37037 ft | 435 kts | 127° |
| 2026-04-24 14:01 | 42.41179 | 17.90863 | 37032 ft | 435 kts | 127° |
| 2026-04-24 14:01 | 42.37253 | 17.97053 | 37036 ft | 435 kts | 126° |
| 2026-04-24 14:02 | 42.33308 | 18.03258 | 37035 ft | 435 kts | 126° |
| 2026-04-24 14:02 | 42.29352 | 18.09468 | 37038 ft | 435 kts | 126° |
| 2026-04-24 14:03 | 42.25383 | 18.15685 | 37040 ft | 435 kts | 126° |
| 2026-04-24 14:03 | 42.21432 | 18.21861 | 37045 ft | 435 kts | 127° |
| 2026-04-24 14:04 | 42.17486 | 18.28016 | 37046 ft | 435 kts | 127° |
| 2026-04-24 14:04 | 42.13522 | 18.34188 | 37065 ft | 434 kts | 126° |
| 2026-04-24 14:05 | 42.09571 | 18.40326 | 37048 ft | 435 kts | 126° |
| 2026-04-24 14:05 | 42.05618 | 18.46454 | 37049 ft | 435 kts | 127° |
| 2026-04-24 14:06 | 42.01668 | 18.52565 | 37047 ft | 435 kts | 127° |
| 2026-04-24 14:06 | 41.97681 | 18.58722 | 37046 ft | 435 kts | 127° |
| 2026-04-24 14:07 | 41.93725 | 18.64820 | 37031 ft | 435 kts | 127° |
| 2026-04-24 14:07 | 41.89804 | 18.71023 | 37037 ft | 434 kts | 125° |
| 2026-04-24 14:08 | 41.86018 | 18.77283 | 37038 ft | 434 kts | 124° |
| 2026-04-24 14:08 | 41.82204 | 18.83593 | 37048 ft | 434 kts | 124° |
| 2026-04-24 14:09 | 41.78394 | 18.89850 | 37045 ft | 435 kts | 125° |
| 2026-04-24 14:09 | 41.74543 | 18.96140 | 37047 ft | 435 kts | 125° |
| 2026-04-24 14:10 | 41.70716 | 19.02373 | 37039 ft | 435 kts | 125° |
| 2026-04-24 14:10 | 41.66866 | 19.08629 | 37045 ft | 435 kts | 125° |
| 2026-04-24 14:11 | 41.62996 | 19.14906 | 37039 ft | 436 kts | 125° |
| 2026-04-24 14:12 | 41.57219 | 19.24253 | 37030 ft | 436 kts | 125° |
| 2026-04-24 14:12 | 41.53358 | 19.30484 | 37032 ft | 436 kts | 125° |
| 2026-04-24 14:13 | 41.49488 | 19.36716 | 37030 ft | 436 kts | 125° |
| 2026-04-24 14:13 | 41.45619 | 19.42932 | 37027 ft | 436 kts | 125° |
| 2026-04-24 14:14 | 41.41757 | 19.49127 | 37039 ft | 436 kts | 125° |
| 2026-04-24 14:14 | 41.35919 | 19.58465 | 37022 ft | 436 kts | 125° |
| 2026-04-24 14:15 | 41.32047 | 19.64643 | 37021 ft | 436 kts | 125° |
| 2026-04-24 14:15 | 41.28150 | 19.70849 | 37019 ft | 437 kts | 126° |
| 2026-04-24 14:16 | 41.24264 | 19.77024 | 37020 ft | 437 kts | 126° |
| 2026-04-24 14:17 | 41.18385 | 19.86343 | 37014 ft | 438 kts | 126° |
| 2026-04-24 14:17 | 41.12503 | 19.95637 | 36994 ft | 439 kts | 126° |
| 2026-04-24 14:18 | 41.08576 | 20.01826 | 37005 ft | 439 kts | 126° |
| 2026-04-24 14:18 | 41.04651 | 20.07999 | 36993 ft | 439 kts | 126° |
| 2026-04-24 14:19 | 41.00724 | 20.14165 | 37011 ft | 439 kts | 126° |
| 2026-04-24 14:19 | 40.96800 | 20.20312 | 36987 ft | 439 kts | 126° |
| 2026-04-24 14:20 | 40.92845 | 20.26494 | 36992 ft | 439 kts | 126° |
| 2026-04-24 14:20 | 40.88897 | 20.32654 | 36990 ft | 440 kts | 126° |
| 2026-04-24 14:21 | 40.84947 | 20.38806 | 37000 ft | 440 kts | 126° |
| 2026-04-24 14:21 | 40.80950 | 20.45017 | 36981 ft | 442 kts | 126° |
| 2026-04-24 14:22 | 40.76989 | 20.51159 | 36982 ft | 441 kts | 126° |
| 2026-04-24 14:23 | 40.71045 | 20.60353 | 36978 ft | 439 kts | 127° |
| 2026-04-24 14:23 | 40.67076 | 20.66478 | 36975 ft | 438 kts | 127° |
| 2026-04-24 14:24 | 40.63111 | 20.72584 | 36975 ft | 438 kts | 127° |
| 2026-04-24 14:24 | 40.59157 | 20.78662 | 36972 ft | 437 kts | 127° |
| 2026-04-24 14:25 | 40.55854 | 20.83731 | 36987 ft | 438 kts | 127° |
| 2026-04-24 14:25 | 40.51221 | 20.90829 | 36982 ft | 439 kts | 127° |
| 2026-04-24 14:26 | 40.47349 | 20.96969 | 36972 ft | 436 kts | 120° |
| 2026-04-24 14:26 | 40.44149 | 21.03701 | 36985 ft | 435 kts | 117° |
| 2026-04-24 14:27 | 40.41544 | 21.09399 | 36986 ft | 437 kts | 117° |
| 2026-04-24 14:27 | 40.38383 | 21.16233 | 36995 ft | 438 kts | 118° |
| 2026-04-24 14:28 | 40.35197 | 21.23023 | 36985 ft | 439 kts | 118° |
| 2026-04-24 14:28 | 40.31983 | 21.29821 | 36985 ft | 440 kts | 118° |
| 2026-04-24 14:29 | 40.28732 | 21.36675 | 36979 ft | 441 kts | 118° |
| 2026-04-24 14:29 | 40.25511 | 21.43455 | 36982 ft | 441 kts | 118° |
| 2026-04-24 14:30 | 40.22273 | 21.50257 | 36982 ft | 441 kts | 118° |
| 2026-04-24 14:30 | 40.19036 | 21.57041 | 36980 ft | 440 kts | 118° |
| 2026-04-24 14:31 | 40.15797 | 21.63814 | 36993 ft | 440 kts | 118° |
| 2026-04-24 14:31 | 40.12563 | 21.70565 | 36983 ft | 439 kts | 118° |
| 2026-04-24 14:32 | 40.09304 | 21.77351 | 36994 ft | 439 kts | 119° |
| 2026-04-24 14:32 | 40.06065 | 21.84080 | 36978 ft | 439 kts | 119° |
| 2026-04-24 14:33 | 40.02820 | 21.90811 | 36974 ft | 439 kts | 119° |
| 2026-04-24 14:33 | 39.99555 | 21.97568 | 36971 ft | 438 kts | 119° |
| 2026-04-24 14:34 | 39.96309 | 22.04269 | 36991 ft | 439 kts | 119° |
| 2026-04-24 14:34 | 39.93054 | 22.10976 | 36987 ft | 440 kts | 119° |
| 2026-04-24 14:35 | 39.89777 | 22.17714 | 36987 ft | 441 kts | 119° |
| 2026-04-24 14:35 | 39.86482 | 22.24472 | 36990 ft | 441 kts | 119° |
| 2026-04-24 14:36 | 39.83190 | 22.31210 | 36992 ft | 441 kts | 119° |
| 2026-04-24 14:36 | 39.79901 | 22.37929 | 36990 ft | 441 kts | 119° |
| 2026-04-24 14:37 | 39.76608 | 22.44641 | 36976 ft | 442 kts | 120° |
| 2026-04-24 14:37 | 39.73294 | 22.51383 | 36990 ft | 442 kts | 120° |
| 2026-04-24 14:38 | 39.69989 | 22.58091 | 36994 ft | 443 kts | 120° |
| 2026-04-24 14:38 | 39.66667 | 22.64818 | 36995 ft | 443 kts | 120° |
| 2026-04-24 14:39 | 39.63322 | 22.71579 | 36997 ft | 444 kts | 120° |
| 2026-04-24 14:39 | 39.59988 | 22.78303 | 37002 ft | 445 kts | 120° |
| 2026-04-24 14:40 | 39.56643 | 22.85035 | 37002 ft | 445 kts | 120° |
| 2026-04-24 14:40 | 39.53321 | 22.91705 | 37000 ft | 445 kts | 120° |
| 2026-04-24 14:41 | 39.49969 | 22.98423 | 37001 ft | 445 kts | 120° |
| 2026-04-24 14:41 | 39.46589 | 23.05182 | 37005 ft | 445 kts | 120° |
| 2026-04-24 14:42 | 39.43225 | 23.11895 | 37009 ft | 445 kts | 121° |
| 2026-04-24 14:42 | 39.39860 | 23.18596 | 37008 ft | 445 kts | 121° |
| 2026-04-24 14:43 | 39.36467 | 23.25339 | 37000 ft | 445 kts | 121° |
| 2026-04-24 14:43 | 39.33094 | 23.32026 | 37004 ft | 444 kts | 121° |
| 2026-04-24 14:44 | 39.29725 | 23.38693 | 37010 ft | 444 kts | 121° |
| 2026-04-24 14:44 | 39.26361 | 23.45338 | 36999 ft | 443 kts | 121° |
| 2026-04-24 14:45 | 39.22975 | 23.52014 | 36995 ft | 443 kts | 121° |
| 2026-04-24 14:45 | 39.19586 | 23.58666 | 36992 ft | 443 kts | 123° |
| 2026-04-24 14:45 | 39.17670 | 23.61744 | 36812 ft | 448 kts | 131° |
| 2026-04-24 14:46 | 39.15326 | 23.64450 | 36190 ft | 451 kts | 141° |
| 2026-04-24 14:46 | 39.12822 | 23.66808 | 35719 ft | 448 kts | 142° |
| 2026-04-24 14:46 | 39.10296 | 23.69136 | 35293 ft | 444 kts | 142° |
| 2026-04-24 14:46 | 39.07780 | 23.71452 | 34864 ft | 440 kts | 142° |
| 2026-04-24 14:47 | 39.05297 | 23.73753 | 34441 ft | 437 kts | 141° |
| 2026-04-24 14:47 | 39.02869 | 23.76019 | 34005 ft | 434 kts | 141° |
| 2026-04-24 14:47 | 39.00428 | 23.78309 | 33510 ft | 431 kts | 141° |
| 2026-04-24 14:47 | 38.98014 | 23.80582 | 33060 ft | 427 kts | 141° |
| 2026-04-24 14:48 | 38.95640 | 23.82818 | 32634 ft | 424 kts | 141° |
| 2026-04-24 14:48 | 38.93269 | 23.85051 | 32209 ft | 420 kts | 141° |
| 2026-04-24 14:48 | 38.90914 | 23.87267 | 31803 ft | 416 kts | 141° |
| 2026-04-24 14:48 | 38.88585 | 23.89457 | 31400 ft | 412 kts | 141° |
| 2026-04-24 14:49 | 38.86297 | 23.91607 | 31001 ft | 409 kts | 141° |
| 2026-04-24 14:49 | 38.84000 | 23.93762 | 30607 ft | 406 kts | 141° |
| 2026-04-24 14:49 | 38.81759 | 23.95864 | 30218 ft | 403 kts | 141° |
| 2026-04-24 14:49 | 38.79497 | 23.97984 | 29784 ft | 400 kts | 141° |
| 2026-04-24 14:50 | 38.77255 | 24.00082 | 29334 ft | 396 kts | 141° |
| 2026-04-24 14:50 | 38.75039 | 24.02155 | 28931 ft | 391 kts | 141° |
| 2026-04-24 14:50 | 38.72845 | 24.04205 | 28510 ft | 387 kts | 141° |
| 2026-04-24 14:50 | 38.70678 | 24.06229 | 28092 ft | 383 kts | 141° |
| 2026-04-24 14:51 | 38.68549 | 24.08216 | 27704 ft | 380 kts | 141° |
| 2026-04-24 14:51 | 38.66414 | 24.10207 | 27310 ft | 377 kts | 141° |
| 2026-04-24 14:51 | 38.64323 | 24.12156 | 26917 ft | 374 kts | 141° |
| 2026-04-24 14:51 | 38.62220 | 24.14115 | 26521 ft | 371 kts | 141° |
| 2026-04-24 14:52 | 38.60136 | 24.16054 | 26132 ft | 368 kts | 141° |
| 2026-04-24 14:52 | 38.58091 | 24.17956 | 25752 ft | 365 kts | 141° |
| 2026-04-24 14:52 | 38.56038 | 24.19864 | 25374 ft | 363 kts | 141° |
| 2026-04-24 14:52 | 38.53996 | 24.21760 | 24997 ft | 361 kts | 141° |
| 2026-04-24 14:53 | 38.51988 | 24.23624 | 24632 ft | 359 kts | 141° |
| 2026-04-24 14:53 | 38.49970 | 24.25495 | 24258 ft | 357 kts | 141° |
| 2026-04-24 14:53 | 38.47961 | 24.27359 | 23884 ft | 355 kts | 141° |
| 2026-04-24 14:53 | 38.45965 | 24.29207 | 23497 ft | 354 kts | 141° |
| 2026-04-24 14:54 | 38.43977 | 24.31046 | 23067 ft | 352 kts | 141° |
| 2026-04-24 14:54 | 38.41990 | 24.32868 | 22666 ft | 350 kts | 143° |
| 2026-04-24 14:54 | 38.39960 | 24.34522 | 22277 ft | 348 kts | 146° |
| 2026-04-24 14:54 | 38.37876 | 24.36092 | 21922 ft | 345 kts | 147° |
| 2026-04-24 14:55 | 38.36501 | 24.37108 | 21674 ft | 343 kts | 147° |
| 2026-04-24 14:55 | 38.33738 | 24.39144 | 21222 ft | 339 kts | 148° |
| 2026-04-24 14:55 | 38.31721 | 24.40639 | 20863 ft | 337 kts | 148° |
| 2026-04-24 14:55 | 38.29692 | 24.42152 | 20512 ft | 335 kts | 148° |
| 2026-04-24 14:56 | 38.27682 | 24.43657 | 20168 ft | 333 kts | 148° |
| 2026-04-24 14:56 | 38.25713 | 24.45139 | 19811 ft | 332 kts | 153° |
| 2026-04-24 14:56 | 38.23710 | 24.46645 | 19467 ft | 331 kts | 153° |
| 2026-04-24 14:56 | 38.21745 | 24.48122 | 19137 ft | 329 kts | 153° |
| 2026-04-24 14:57 | 38.19793 | 24.49590 | 18807 ft | 328 kts | 153° |
| 2026-04-24 14:57 | 38.17831 | 24.51065 | 18476 ft | 327 kts | 153° |
| 2026-04-24 14:57 | 38.15867 | 24.52540 | 18123 ft | 326 kts | 153° |
| 2026-04-24 14:57 | 38.13933 | 24.53992 | 17755 ft | 324 kts | 153° |
| 2026-04-24 14:58 | 38.11993 | 24.55443 | 17404 ft | 322 kts | 153° |
| 2026-04-24 14:58 | 38.10070 | 24.56885 | 17092 ft | 318 kts | 153° |
| 2026-04-24 14:58 | 38.08166 | 24.58315 | 16760 ft | 316 kts | 152° |
| 2026-04-24 14:58 | 38.06291 | 24.59723 | 16437 ft | 314 kts | 153° |
| 2026-04-24 14:59 | 38.04408 | 24.61133 | 16115 ft | 312 kts | 152° |
| 2026-04-24 14:59 | 38.02551 | 24.62523 | 15797 ft | 311 kts | 152° |
| 2026-04-24 14:59 | 38.00683 | 24.63919 | 15475 ft | 309 kts | 152° |
| 2026-04-24 14:59 | 37.98848 | 24.65290 | 15162 ft | 308 kts | 150° |
| 2026-04-24 15:00 | 37.97003 | 24.66668 | 14851 ft | 307 kts | 150° |
| 2026-04-24 15:00 | 37.95161 | 24.68042 | 14530 ft | 305 kts | 150° |
| 2026-04-24 15:00 | 37.93350 | 24.69394 | 14215 ft | 304 kts | 149° |
| 2026-04-24 15:00 | 37.91524 | 24.70756 | 13903 ft | 304 kts | 149° |
| 2026-04-24 15:01 | 37.89698 | 24.72118 | 13554 ft | 303 kts | 149° |
| 2026-04-24 15:01 | 37.87883 | 24.73470 | 13202 ft | 302 kts | 149° |
| 2026-04-24 15:01 | 37.86088 | 24.74807 | 12863 ft | 301 kts | 149° |
| 2026-04-24 15:01 | 37.84277 | 24.76154 | 12536 ft | 300 kts | 149° |
| 2026-04-24 15:02 | 37.82498 | 24.77478 | 12202 ft | 298 kts | 148° |
| 2026-04-24 15:02 | 37.80705 | 24.78811 | 11877 ft | 297 kts | 148° |
| 2026-04-24 15:02 | 37.78920 | 24.80136 | 11571 ft | 296 kts | 148° |
| 2026-04-24 15:02 | 37.77164 | 24.81440 | 11246 ft | 295 kts | 148° |
| 2026-04-24 15:03 | 37.75988 | 24.82314 | 11031 ft | 294 kts | 148° |
| 2026-04-24 15:03 | 37.73649 | 24.84062 | 10606 ft | 293 kts | 147° |
| 2026-04-24 15:03 | 37.71880 | 24.85382 | 10281 ft | 292 kts | 147° |
| 2026-04-24 15:03 | 37.70150 | 24.86667 | 10062 ft | 288 kts | 146° |
| 2026-04-24 15:04 | 37.68422 | 24.87944 | 9766 ft | 286 kts | 147° |
| 2026-04-24 15:04 | 37.66711 | 24.89210 | 9440 ft | 286 kts | 147° |
| 2026-04-24 15:04 | 37.65019 | 24.90462 | 9125 ft | 284 kts | 147° |
| 2026-04-24 15:04 | 37.63312 | 24.91723 | 8816 ft | 283 kts | 147° |
| 2026-04-24 15:05 | 37.61607 | 24.92982 | 8498 ft | 282 kts | 147° |
| 2026-04-24 15:05 | 37.59942 | 24.94210 | 8190 ft | 282 kts | 147° |
| 2026-04-24 15:05 | 37.58247 | 24.95459 | 7873 ft | 281 kts | 146° |
| 2026-04-24 15:05 | 37.56558 | 24.96703 | 7573 ft | 280 kts | 147° |
| 2026-04-24 15:06 | 37.54888 | 24.97932 | 7274 ft | 280 kts | 147° |
| 2026-04-24 15:06 | 37.53206 | 24.99171 | 6982 ft | 279 kts | 146° |
| 2026-04-24 15:06 | 37.51550 | 25.00392 | 6693 ft | 278 kts | 146° |
| 2026-04-24 15:06 | 37.49895 | 25.01611 | 6413 ft | 277 kts | 146° |
| 2026-04-24 15:07 | 37.48341 | 25.02973 | 6088 ft | 273 kts | 128° |
| 2026-04-24 15:07 | 37.47450 | 25.05001 | 5968 ft | 261 kts | 105° |
| 2026-04-24 15:07 | 37.47059 | 25.07213 | 5835 ft | 259 kts | 96° |
| 2026-04-24 15:07 | 37.46816 | 25.09452 | 5718 ft | 262 kts | 93° |
| 2026-04-24 15:08 | 37.46586 | 25.11750 | 5595 ft | 264 kts | 93° |
| 2026-04-24 15:08 | 37.46352 | 25.14023 | 5470 ft | 265 kts | 94° |
| 2026-04-24 15:08 | 37.46107 | 25.16316 | 5349 ft | 264 kts | 94° |
| 2026-04-24 15:08 | 37.45855 | 25.18614 | 5230 ft | 264 kts | 94° |
| 2026-04-24 15:09 | 37.45595 | 25.20911 | 5116 ft | 264 kts | 95° |
| 2026-04-24 15:09 | 37.45330 | 25.23172 | 5000 ft | 263 kts | 95° |
| 2026-04-24 15:09 | 37.45065 | 25.25458 | 4876 ft | 263 kts | 95° |
| 2026-04-24 15:09 | 37.44801 | 25.27744 | 4761 ft | 262 kts | 95° |
| 2026-04-24 15:10 | 37.44539 | 25.30017 | 4645 ft | 260 kts | 94° |
| 2026-04-24 15:10 | 37.44283 | 25.32211 | 4500 ft | 251 kts | 94° |
| 2026-04-24 15:10 | 37.44035 | 25.34354 | 4393 ft | 243 kts | 93° |
| 2026-04-24 15:10 | 37.43926 | 25.36441 | 4289 ft | 233 kts | 88° |
| 2026-04-24 15:11 | 37.43881 | 25.38458 | 4177 ft | 227 kts | 86° |
| 2026-04-24 15:11 | 37.43842 | 25.40415 | 4101 ft | 228 kts | 86° |
| 2026-04-24 15:11 | 37.43793 | 25.42430 | 4011 ft | 231 kts | 88° |
| 2026-04-24 15:11 | 37.43739 | 25.44464 | 3895 ft | 234 kts | 88° |
| 2026-04-24 15:12 | 37.43651 | 25.46525 | 3792 ft | 238 kts | 95° |
| 2026-04-24 15:12 | 37.41444 | 25.49607 | 3554 ft | 256 kts | 162° |
| 2026-04-24 15:12 | 37.39750 | 25.49963 | 3498 ft | 244 kts | 169° |
| 2026-04-24 15:13 | 37.38102 | 25.50241 | 3354 ft | 233 kts | 168° |
| 2026-04-24 15:13 | 37.36521 | 25.50520 | 3240 ft | 224 kts | 168° |
| 2026-04-24 15:13 | 37.35012 | 25.50792 | 3149 ft | 221 kts | 167° |
| 2026-04-24 15:13 | 37.33479 | 25.51073 | 3054 ft | 222 kts | 167° |
| 2026-04-24 15:14 | 37.31923 | 25.51213 | 2928 ft | 228 kts | 187° |
| 2026-04-24 15:14 | 37.30561 | 25.50345 | 2833 ft | 218 kts | 229° |
| 2026-04-24 15:14 | 37.29847 | 25.48777 | 2782 ft | 198 kts | 252° |
| 2026-04-24 15:14 | 37.29392 | 25.47215 | 2674 ft | 185 kts | 254° |
| 2026-04-24 15:15 | 37.28972 | 25.45696 | 2616 ft | 182 kts | 253° |
| 2026-04-24 15:15 | 37.28557 | 25.44196 | 2541 ft | 184 kts | 256° |
| 2026-04-24 15:15 | 37.28442 | 25.42666 | 2455 ft | 169 kts | 290° |
| 2026-04-24 15:15 | 37.29011 | 25.41460 | 2395 ft | 156 kts | 325° |
| 2026-04-24 15:16 | 37.29908 | 25.40881 | 2345 ft | 141 kts | 342° |
| 2026-04-24 15:16 | 37.30514 | 25.40597 | 2291 ft | 140 kts | 342° |
| 2026-04-24 15:16 | 37.31722 | 25.40045 | 2228 ft | 138 kts | 344° |
| 2026-04-24 15:16 | 37.32313 | 25.39778 | 2188 ft | 134 kts | 344° |
| 2026-04-24 15:17 | 37.33193 | 25.39382 | 2114 ft | 134 kts | 343° |
| 2026-04-24 15:17 | 37.34066 | 25.38948 | 2065 ft | 137 kts | 340° |
| 2026-04-24 15:17 | 37.34947 | 25.38507 | 1925 ft | 138 kts | 343° |
| 2026-04-24 15:17 | 37.35848 | 25.38117 | 1809 ft | 134 kts | 343° |
| 2026-04-24 15:18 | 37.36719 | 25.37738 | 1638 ft | 133 kts | 343° |
| 2026-04-24 15:18 | 37.37589 | 25.37350 | 1468 ft | 132 kts | 342° |
| 2026-04-24 15:18 | 37.38456 | 25.36973 | 1334 ft | 131 kts | 342° |
| 2026-04-24 15:18 | 37.39307 | 25.36589 | 1214 ft | 131 kts | 346° |
| 2026-04-24 15:19 | 37.40167 | 25.36251 | 1033 ft | 127 kts | 347° |
| 2026-04-24 15:19 | 37.41004 | 25.35930 | 855 ft | 126 kts | 343° |
| 2026-04-24 15:19 | 37.41831 | 25.35561 | 667 ft | 126 kts | 343° |
| 2026-04-24 15:19 | 37.42634 | 25.35212 | 454 ft | 120 kts | 343° |
| 2026-04-24 15:20 | 37.43298 | 25.34919 | 412 ft | 71 kts | 341° |
| 2026-04-24 15:20 | 37.43664 | 25.34758 | 410 ft | 38 kts | 340° |
| 2026-04-24 15:20 | 37.43876 | 25.34663 | 411 ft | 30 kts | 340° |
| 2026-04-24 15:20 | 37.44069 | 25.34574 | 406 ft | 28 kts | 340° |
| 2026-04-24 15:21 | 37.44230 | 25.34505 | 405 ft | 11 kts | 344° |
| 2026-04-24 15:21 | 37.44304 | 25.34492 | 402 ft | 11 kts | 308° |
| 2026-04-24 15:21 | 37.44282 | 25.34454 | 403 ft | 6 kts | 154° |
| 2026-04-24 15:21 | 37.44209 | 25.34512 | 405 ft | 21 kts | 156° |
| 2026-04-24 15:22 | 37.44060 | 25.34580 | 404 ft | 23 kts | 160° |
| 2026-04-24 15:22 | 37.43911 | 25.34648 | 411 ft | 22 kts | 161° |
| 2026-04-24 15:22 | 37.43765 | 25.34711 | 410 ft | 20 kts | 162° |
| 2026-04-24 15:23 | 37.43616 | 25.34677 | 407 ft | 6 kts | 200° |
| 2026-04-24 15:23 | 37.43558 | 25.34674 | 404 ft | 4 kts | 216° |
| 2026-04-24 15:23 | 37.43546 | 25.34640 | 406 ft | 3 kts | 251° |
| 2026-04-24 15:24 | 37.43543 | 25.34627 | 406 ft | 0 kts | 251° |
| 2026-04-24 15:27 | 37.43543 | 25.34628 | 406 ft | 0 kts | 251° |
| 2026-04-24 15:37 | 37.43543 | 25.34629 | 406 ft | 0 kts | 251° |
| 2026-04-24 15:47 | 37.43543 | 25.34630 | 406 ft | 0 kts | 251° |
| 2026-04-24 15:48 | 37.43544 | 25.34630 | 406 ft | 0 kts | 251° |
| 2026-04-24 15:58 | 37.43544 | 25.34631 | 406 ft | 0 kts | 251° |
| 2026-04-24 16:13 | 37.43544 | 25.34632 | 406 ft | 0 kts | 251° |